Cottage Grove, OR

5:59 AM PST on February 07, 2016 (GMT -0800)
Wilson Creek | | Change Station
CLOSE
Current Station
Personal Weather Station
Location: Cottage Grove, OR
Elevation: 1020 ft
Nearby Weather Stations

Elev 1020 ft 43.69 °N, 123.05 °W | Updated 8 seconds ago

Overcast
Overcast
41.9 °F
Feels Like 42 °F
N
0.0
Wind Variable Wind from North
Gusts 0.0 mph

Today
High -- | Low -- °F
--% Chance of Precip.
Yesterday
High -- | Low -- °F
Precip. -- in
Pressure 30.48 in
Visibility 0.2 miles
Clouds
Windchill 42 °F
Dew Point 41 °F
Humidity 98%
Rainfall 0.00 in
Snow Depth Not available.
7:22 AM 5:30 PM
Waning Crescent, 1% visible
METAR KEUG 071354Z 05004KT 1/4SM R16R/2600V3000FT FG VV002 08/07 A3048 RMK AO2 SLP322 T00780072 $
Pressure 30.48 in
Visibility 0.2 miles
Clouds
Windchill 42 °F
Dew Point 41 °F
Humidity 98%
Rainfall 0.00 in
Snow Depth Not available.
7:22 AM 5:30 PM
Waning Crescent, 1% visible
METAR KEUG 071354Z 05004KT 1/4SM R16R/2600V3000FT FG VV002 08/07 A3048 RMK AO2 SLP322 T00780072 $

10-Day Weather Forecast

Almanac

Astronomy

Feb. 07, 2016 Rise Set
Actual Time
Civil Twilight
Nautical Twilight
Astronomical Twilight
Moon
Length of Visible Light
Length of Day
Tomorrow will be .
, % of the Moon is Illuminated

Today's Extremes

State Highs State Lows

Community

WunderPhotos

Upload Photos

1,891,190 photos uploaded!

WunderBlog® & News

Nearby

Air Quality

  Air Quality AQ Index Pollutant
Not available.

Snow Depth

Station Depth Elevation

Earthquake Activity

City Distance Mag. Time & Date
Minimum magnitude displayed is 2.5.

Coastal Water Temperatures

Place Temperature

Stations

Nearby Weather Stations

Station Location Temp. Windchill Dew Point Humidity Wind Precip. Elev Updated Type
                   

Watches & Warnings

There are currently no watches in effect.